Terminal Aerodrome Forecast
Issued by NWS Quad Cities IA IL

Home | Current Version | Previous Version | Text Only | Print | Product List | Glossary On
Versions: 1 2 3 4 5 6 7 8 9 10 11 12 13 14 15 16 17
000
FTUS43 KDVN 031700
TAFMLI
TAF
KMLI 031720Z 0318/0418 23011KT 1 1/2SM -DZ BR OVC006
     FM032200 27013G18KT 2SM -DZ BR OVC005
     FM040000 30015G20KT 4SM BR OVC006
     FM040300 31015G20KT 6SM BR SCT006 OVC012
     FM040800 31013G18KT P6SM SCT012 BKN070
     FM041600 31013KT P6SM SCT070=

USA.gov is the U.S. government's official web portal to all federal, state and local government web resources and services.